Airport ID:K65S
Update Time (UTC):25 JAN 20 21:57
Wind Speed (Knots):CALM
Wind Direction (Magnetic):
Temperature (°C):2
Dew Point (°C):2
Humidity (%):96
Altimeter (inHg):30.03
Density Altitude (Feet):
Visibility (Miles):0.25
Clouds (Hundreds of feet):OVC020
Present Weather:FOG
METAR:METAR K65S 252155Z AUTO 00000KT 1/2SM FG OVC020 02/02 A3003 RMK AO2 P0001

The data displayed is for advisory purposes only and is not to be used for flight planning or operations.

This page is not automatically refreshed. Reload the page to see current data.